createdAt,value
2022-11-14T00:02:06.920Z,32.60
2022-11-14T00:06:08.976Z,30.08
2022-11-14T00:10:10.457Z,31.13
2022-11-14T00:14:11.981Z,31.38
2022-11-14T00:18:13.476Z,30.88
2022-11-14T00:22:15.055Z,33.40
2022-11-14T00:26:16.603Z,33.60
2022-11-14T00:30:18.135Z,30.65
2022-11-14T00:34:19.616Z,32.85
2022-11-14T00:38:21.516Z,30.13
2022-11-14T00:42:23.060Z,31.95
2022-11-14T00:46:24.473Z,32.65
2022-11-14T00:50:25.920Z,33.67
2022-11-14T00:54:27.451Z,32.78
2022-11-14T00:58:29.207Z,31.42
2022-11-14T01:02:30.859Z,34.70
2022-11-14T01:06:32.342Z,34.83
2022-11-14T01:10:33.826Z,34.17
2022-11-14T01:14:35.334Z,30.85
2022-11-14T01:18:38.200Z,30.25
2022-11-14T01:22:39.717Z,34.90
2022-11-14T01:26:41.140Z,33.55
2022-11-14T01:30:42.659Z,32.72
2022-11-14T01:34:44.140Z,30.95
2022-11-14T01:38:45.769Z,30.27
2022-11-14T01:43:16.364Z,34.40
2022-11-14T01:47:26.179Z,34.63
2022-11-14T01:55:31.656Z,31.50
2022-11-14T01:59:44.627Z,31.42
2022-11-14T02:03:49.991Z,30.83
2022-11-14T02:07:52.058Z,33.10
2022-11-14T02:11:56.573Z,28.80
2022-11-14T02:15:58.031Z,33.47
2022-11-14T02:20:11.726Z,35.78
2022-11-14T02:24:13.863Z,32.50
2022-11-14T02:28:15.422Z,34.78
2022-11-14T02:32:16.931Z,35.03
2022-11-14T02:36:18.354Z,34.83
2022-11-14T02:40:19.810Z,28.27
2022-11-14T02:44:21.359Z,34.15
2022-11-14T02:48:22.852Z,32.45
2022-11-14T02:52:24.373Z,28.73
2022-11-14T02:56:25.840Z,30.17
2022-11-14T03:00:27.890Z,32.00
2022-11-14T03:04:29.353Z,32.63
2022-11-14T03:08:31.195Z,32.88
2022-11-14T03:12:33.016Z,33.28
2022-11-14T03:16:34.473Z,30.83
2022-11-14T03:20:36.005Z,33.05
2022-11-14T03:24:37.488Z,30.30
2022-11-14T03:28:39.583Z,33.28
2022-11-14T03:32:41.222Z,32.03
2022-11-14T03:36:42.635Z,30.42
2022-11-14T03:40:44.092Z,32.15
2022-11-14T03:44:45.668Z,30.08
2022-11-14T03:48:47.202Z,32.20
2022-11-14T03:52:51.442Z,30.90
2022-11-14T03:56:52.927Z,32.55
2022-11-14T04:00:56.072Z,31.67
2022-11-14T04:04:57.763Z,31.70
2022-11-14T04:08:59.945Z,29.75
2022-11-14T04:13:01.422Z,31.25
2022-11-14T04:17:02.889Z,29.30
2022-11-14T04:21:04.554Z,27.52
2022-11-14T04:25:07.517Z,29.38
2022-11-14T04:29:08.994Z,27.65
2022-11-14T04:33:10.823Z,27.85
2022-11-14T04:37:12.471Z,30.48
2022-11-14T04:41:13.990Z,31.67
2022-11-14T04:45:15.612Z,31.05
2022-11-14T04:49:17.180Z,29.77
2022-11-14T04:53:18.662Z,32.95
2022-11-14T04:57:20.124Z,29.88
2022-11-14T05:01:21.667Z,33.38
2022-11-14T05:05:23.214Z,32.05
2022-11-14T05:09:24.695Z,30.63
2022-11-14T05:13:26.506Z,31.55
2022-11-14T05:17:28.303Z,31.08
2022-11-14T05:21:29.744Z,32.55
2022-11-14T05:25:31.276Z,31.30
2022-11-14T05:29:32.893Z,31.02
2022-11-14T05:33:35.071Z,27.60
2022-11-14T05:37:36.638Z,32.88
2022-11-14T05:41:38.126Z,30.65
2022-11-14T05:45:39.652Z,32.00
2022-11-14T05:49:41.203Z,32.35
2022-11-14T05:53:42.746Z,25.73
2022-11-14T05:57:44.198Z,32.83
2022-11-14T06:01:45.816Z,34.28
2022-11-14T06:05:47.380Z,33.97
2022-11-14T06:09:48.888Z,32.47
2022-11-14T06:13:51.016Z,34.17
2022-11-14T06:17:54.029Z,33.05
2022-11-14T06:21:58.224Z,33.75
2022-11-14T06:26:02.155Z,32.58
2022-11-14T06:30:04.503Z,30.73
2022-11-14T06:34:08.751Z,31.83
2022-11-14T06:38:10.218Z,30.95
2022-11-14T06:42:11.994Z,32.30
2022-11-14T06:46:19.607Z,30.30
2022-11-14T06:50:21.116Z,33.83
2022-11-14T06:54:22.599Z,29.67
2022-11-14T06:58:33.480Z,33.97
2022-11-14T07:02:35.376Z,31.92
2022-11-14T07:06:36.951Z,33.35
2022-11-14T07:10:38.794Z,30.27
2022-11-14T07:14:42.975Z,31.00
2022-11-14T07:18:44.717Z,30.05
2022-11-14T07:22:46.890Z,30.70
2022-11-14T07:26:48.801Z,32.10
2022-11-14T07:30:50.374Z,30.52
2022-11-14T07:34:51.971Z,29.95
2022-11-14T07:38:54.175Z,33.17
2022-11-14T07:43:00.213Z,30.58
2022-11-14T07:47:01.777Z,31.10
2022-11-14T07:51:06.315Z,29.90
2022-11-14T07:55:08.176Z,32.83
2022-11-14T07:59:09.615Z,28.70
2022-11-14T08:03:11.480Z,30.25
2022-11-14T08:07:13.012Z,31.45
2022-11-14T08:11:23.098Z,31.15
2022-11-14T08:15:35.900Z,29.77
2022-11-14T08:19:37.311Z,27.85
2022-11-14T08:23:38.853Z,26.98
2022-11-14T08:27:40.305Z,28.10
2022-11-14T08:31:41.932Z,29.48
2022-11-14T08:35:43.452Z,29.17
2022-11-14T08:39:44.998Z,29.35
2022-11-14T08:43:47.722Z,29.67
2022-11-14T08:47:53.035Z,29.00
2022-11-14T08:51:54.797Z,27.88
2022-11-14T08:55:56.506Z,27.00
2022-11-14T08:59:58.099Z,28.50
2022-11-14T09:04:00.789Z,26.23
2022-11-14T09:08:03.329Z,27.95
2022-11-14T09:12:05.150Z,25.38
2022-11-14T09:16:06.870Z,27.55
2022-11-14T09:20:08.719Z,25.70
2022-11-14T09:24:10.197Z,27.13
2022-11-14T09:28:11.710Z,24.95
2022-11-14T09:32:13.168Z,24.25
2022-11-14T09:36:15.935Z,24.38
2022-11-14T09:40:17.581Z,22.60
2022-11-14T09:44:49.649Z,23.88
2022-11-14T09:48:52.745Z,21.90
2022-11-14T09:52:57.460Z,22.75
2022-11-14T09:57:00.282Z,22.05
2022-11-14T10:01:28.543Z,22.50
2022-11-14T10:05:42.767Z,22.40
2022-11-14T10:09:54.334Z,20.30
2022-11-14T10:14:20.135Z,19.90
2022-11-14T10:18:40.403Z,20.83
2022-11-14T10:23:01.348Z,21.70
2022-11-14T10:27:10.348Z,21.58
2022-11-14T10:31:21.176Z,22.92
2022-11-14T10:35:35.850Z,23.75
2022-11-14T10:39:52.655Z,20.48
2022-11-14T10:43:55.221Z,19.90
2022-11-14T10:48:03.535Z,20.15
2022-11-14T10:52:14.613Z,21.73
2022-11-14T10:56:16.243Z,19.50
2022-11-14T11:00:20.487Z,18.95
2022-11-14T11:04:30.980Z,21.33
2022-11-14T11:08:51.563Z,21.05
2022-11-14T11:12:54.138Z,21.50
2022-11-14T11:17:35.873Z,20.50
2022-11-14T11:21:52.769Z,18.40
2022-11-14T11:26:09.446Z,21.25
2022-11-14T11:30:23.242Z,19.73
2022-11-14T11:34:43.001Z,20.08
2022-11-14T11:38:45.824Z,20.92
2022-11-14T11:47:18.925Z,19.10
2022-11-14T11:51:24.259Z,19.65
2022-11-14T11:55:30.816Z,17.70
2022-11-14T11:59:43.787Z,17.35
2022-11-14T12:03:51.258Z,16.05
2022-11-14T12:08:04.339Z,16.92
2022-11-14T12:12:15.157Z,16.58
2022-11-14T12:16:57.204Z,15.95
2022-11-14T12:21:12.578Z,16.30
2022-11-14T12:25:20.099Z,15.68
2022-11-14T12:29:39.920Z,16.95
2022-11-14T12:33:53.716Z,15.15
2022-11-14T12:37:58.461Z,16.02
2022-11-14T12:42:05.298Z,14.73
2022-11-14T12:46:09.666Z,13.30
2022-11-14T12:50:35.001Z,15.88
2022-11-14T12:54:45.112Z,16.20
2022-11-14T12:58:52.568Z,14.98
2022-11-14T13:03:23.290Z,14.18
2022-11-14T13:07:54.371Z,14.93
2022-11-14T13:12:14.745Z,14.98
2022-11-14T13:16:52.753Z,15.57
2022-11-14T13:21:21.597Z,14.85
2022-11-14T13:25:24.127Z,14.40
2022-11-14T13:29:40.833Z,14.55
2022-11-14T13:33:44.575Z,13.93
2022-11-14T13:38:13.337Z,13.10
2022-11-14T13:42:45.326Z,13.20
2022-11-14T13:47:05.533Z,13.93
2022-11-14T13:51:36.698Z,13.73
2022-11-14T13:55:53.505Z,12.60
2022-11-14T14:00:02.819Z,11.98
2022-11-14T14:04:23.704Z,10.80
2022-11-14T14:09:00.290Z,12.10
2022-11-14T14:13:16.034Z,12.05
2022-11-14T14:17:27.658Z,11.85
2022-11-14T14:21:31.779Z,12.60
2022-11-14T14:25:44.034Z,11.75
2022-11-14T14:29:48.703Z,17.27
2022-11-14T14:33:51.821Z,13.10
2022-11-14T14:37:55.354Z,13.60
2022-11-14T14:41:58.827Z,13.00
2022-11-14T14:46:01.446Z,12.93
2022-11-14T14:50:14.353Z,12.98
2022-11-14T14:54:20.968Z,13.70
2022-11-14T14:58:22.936Z,12.32
2022-11-14T15:02:26.265Z,12.90
2022-11-14T15:06:39.416Z,13.00
2022-11-14T15:10:42.082Z,13.15
2022-11-14T15:14:44.111Z,17.55
2022-11-14T15:18:47.495Z,14.20
2022-11-14T15:23:10.473Z,14.85
2022-11-14T15:27:17.215Z,16.00
2022-11-14T15:31:21.288Z,15.20
2022-11-14T15:35:25.589Z,14.95
2022-11-14T15:39:28.116Z,15.25
2022-11-14T15:43:44.932Z,14.30
2022-11-14T15:47:46.642Z,14.82
2022-11-14T15:52:02.763Z,14.95
2022-11-14T15:56:04.323Z,15.77
2022-11-14T16:00:06.381Z,17.23
2022-11-14T16:04:14.032Z,16.65
2022-11-14T16:08:15.560Z,16.63
2022-11-14T16:12:17.365Z,17.10
2022-11-14T16:16:18.837Z,16.50
2022-11-14T16:20:29.338Z,16.20
2022-11-14T16:24:33.870Z,17.70
2022-11-14T16:28:36.026Z,16.50
2022-11-14T16:32:37.588Z,15.50
2022-11-14T16:36:39.103Z,16.88
2022-11-14T16:40:44.246Z,17.17
2022-11-14T16:44:50.456Z,17.00
2022-11-14T16:48:52.372Z,19.48
2022-11-14T16:52:53.828Z,20.38
2022-11-14T16:56:55.349Z,19.02
2022-11-14T17:00:56.935Z,19.08
2022-11-14T17:04:58.510Z,17.48
2022-11-14T17:09:00.926Z,17.83
2022-11-14T17:13:02.404Z,17.00
2022-11-14T17:17:03.854Z,19.13
2022-11-14T17:21:10.675Z,18.23
2022-11-14T17:25:13.605Z,16.83
2022-11-14T17:29:15.069Z,20.67
2022-11-14T17:33:16.558Z,20.27
2022-11-14T17:37:27.241Z,18.58
2022-11-14T17:41:29.094Z,18.40
2022-11-14T17:45:30.632Z,18.65
2022-11-14T17:49:32.124Z,17.10
2022-11-14T17:53:34.530Z,17.52
2022-11-14T17:57:36.114Z,18.38
2022-11-14T18:01:37.616Z,19.52
2022-11-14T18:05:39.178Z,19.40
2022-11-14T18:09:41.309Z,18.33
2022-11-14T18:13:43.460Z,18.38
2022-11-14T18:17:44.996Z,17.33
2022-11-14T18:21:52.036Z,18.92
2022-11-14T18:25:55.022Z,18.58
2022-11-14T18:30:07.957Z,19.10
2022-11-14T18:34:18.239Z,19.08
2022-11-14T18:38:19.824Z,18.85
2022-11-14T18:42:21.252Z,19.05
2022-11-14T18:46:25.113Z,20.30
2022-11-14T18:50:26.579Z,20.52
2022-11-14T18:54:28.017Z,20.17
2022-11-14T18:58:29.482Z,19.90
2022-11-14T19:02:31.107Z,18.60
2022-11-14T19:06:35.103Z,19.27
2022-11-14T19:10:36.551Z,17.35
2022-11-14T19:14:38.158Z,16.95
2022-11-14T19:18:39.598Z,19.60
2022-11-14T19:22:41.081Z,18.73
2022-11-14T19:26:42.884Z,17.20
2022-11-14T19:30:44.371Z,17.50
2022-11-14T19:34:45.859Z,19.50
2022-11-14T19:38:47.293Z,17.92
2022-11-14T19:42:53.174Z,20.77
2022-11-14T19:46:54.686Z,17.35
2022-11-14T19:51:18.939Z,18.15
2022-11-14T19:55:20.385Z,17.85
2022-11-14T19:59:24.559Z,19.45
2022-11-14T20:03:26.398Z,17.15
2022-11-14T20:07:28.532Z,19.13
2022-11-14T20:11:30.873Z,18.35
2022-11-14T20:15:32.379Z,18.27
2022-11-14T20:19:33.965Z,18.42
2022-11-14T20:23:36.302Z,17.08
2022-11-14T20:27:37.842Z,18.50
2022-11-14T20:31:39.431Z,17.65
2022-11-14T20:35:41.011Z,18.65
2022-11-14T20:39:42.516Z,19.33
2022-11-14T20:43:44.056Z,18.98
2022-11-14T20:47:45.857Z,17.65
2022-11-14T20:51:49.046Z,17.92
2022-11-14T20:55:53.928Z,18.27
2022-11-14T20:59:55.532Z,19.38
2022-11-14T21:03:57.045Z,19.35
2022-11-14T21:07:58.486Z,20.35
2022-11-14T21:11:59.916Z,19.55
2022-11-14T21:16:04.073Z,19.23
2022-11-14T21:20:06.056Z,19.13
2022-11-14T21:24:07.768Z,19.58
2022-11-14T21:28:09.211Z,19.45
2022-11-14T21:32:10.676Z,20.00
2022-11-14T21:36:43.404Z,20.65
2022-11-14T21:40:35.449Z,19.27
2022-11-14T21:44:36.859Z,20.20
2022-11-14T21:48:41.600Z,19.60
2022-11-14T21:52:43.185Z,20.90
2022-11-14T21:56:44.682Z,20.50
2022-11-14T22:00:46.128Z,21.27
2022-11-14T22:04:47.571Z,20.98
2022-11-14T22:08:53.926Z,21.98
2022-11-14T22:12:55.351Z,20.83
2022-11-14T22:16:58.087Z,20.40
2022-11-14T22:20:59.844Z,20.30
2022-11-14T22:25:01.258Z,20.63
2022-11-14T22:29:02.736Z,21.85
2022-11-14T22:33:04.258Z,21.83
2022-11-14T22:37:05.682Z,21.42
2022-11-14T22:41:11.782Z,21.63
2022-11-14T22:45:13.359Z,22.27
2022-11-14T22:49:19.759Z,22.17
2022-11-14T22:53:22.217Z,19.80
2022-11-14T22:57:23.656Z,21.80
2022-11-14T23:01:31.200Z,22.77
2022-11-14T23:05:36.845Z,23.00
2022-11-14T23:09:38.283Z,20.98
2022-11-14T23:13:42.624Z,22.90
2022-11-14T23:17:44.097Z,24.60
2022-11-14T23:21:45.566Z,22.02
2022-11-14T23:25:47.209Z,21.55
2022-11-14T23:29:48.649Z,24.30
2022-11-14T23:33:53.011Z,24.42
2022-11-14T23:37:54.434Z,24.80
2022-11-14T23:41:55.878Z,25.35
2022-11-14T23:45:58.509Z,24.52
2022-11-14T23:49:59.987Z,22.75
2022-11-14T23:54:01.415Z,23.98
2022-11-14T23:58:03.504Z,23.60
